Time;durP1;ratioP1;P1;durP2;ratioP2;P2;SDS_P1;SDS_P2;PMS_P1;PMS_P2;Temp;Humidity;BMP_temperature;BMP_pressure;BME280_temperature;BME280_humidity;BME280_pressure;Samples;Min_cycle;Max_cycle;Signal;HPM_P1;HPM_P2
2021/08/12 00:01:51;;;;;;;5.07;2.80;;;17.70;75.70;;;;;;5092948;28;20016;-85
2021/08/12 00:04:19;;;;;;;3.08;2.78;;;17.60;76.20;;;;;;5093225;28;20035;-85
2021/08/12 00:06:46;;;;;;;8.55;6.00;;;17.60;75.60;;;;;;5092515;28;20039;-85
2021/08/12 00:09:12;;;;;;;11.82;7.10;;;17.50;75.80;;;;;;5092734;28;20480;-85
2021/08/12 00:11:39;;;;;;;6.53;3.92;;;17.50;77.20;;;;;;5090824;28;20028;-85
2021/08/12 00:14:05;;;;;;;7.95;4.70;;;17.50;76.60;;;;;;5093753;28;20074;-85
2021/08/12 00:16:32;;;;;;;7.65;4.28;;;17.50;76.40;;;;;;5081000;28;20052;-85
2021/08/12 00:18:58;;;;;;;5.85;4.03;;;17.50;77.00;;;;;;5072340;28;20028;-86
2021/08/12 00:21:24;;;;;;;4.65;3.25;;;17.60;76.70;;;;;;5072932;28;20031;-85
2021/08/12 00:23:53;;;;;;;4.30;3.28;;;17.50;77.00;;;;;;5072940;28;20021;-85
2021/08/12 00:26:19;;;;;;;7.43;3.30;;;17.60;78.10;;;;;;5072756;28;20481;-84
2021/08/12 00:28:45;;;;;;;5.03;3.55;;;17.50;76.60;;;;;;5073514;28;20107;-84
2021/08/12 00:31:11;;;;;;;5.63;3.40;;;17.40;77.80;;;;;;5073132;28;20034;-83
2021/08/12 00:33:38;;;;;;;4.95;3.03;;;17.30;76.60;;;;;;5072178;28;20032;-83
2021/08/12 00:36:04;;;;;;;4.65;3.25;;;17.30;78.00;;;;;;5072571;28;20033;-83
2021/08/12 00:38:29;;;;;;;4.07;3.40;;;17.20;77.80;;;;;;5073304;28;20020;-83
2021/08/12 00:40:55;;;;;;;4.78;3.30;;;17.20;77.40;;;;;;5073505;28;20038;-83
2021/08/12 00:43:21;;;;;;;3.67;2.83;;;17.10;77.50;;;;;;5105452;28;20028;-83
2021/08/12 00:45:46;;;;;;;4.53;3.05;;;17.10;77.80;;;;;;5072946;28;20082;-83
2021/08/12 00:48:12;;;;;;;6.30;3.10;;;17.20;77.60;;;;;;5073221;28;20031;-83
2021/08/12 00:50:41;;;;;;;4.32;3.15;;;17.20;78.00;;;;;;5072745;28;20534;-83
2021/08/12 00:53:08;;;;;;;4.00;3.10;;;17.20;77.30;;;;;;5073143;28;20024;-83
2021/08/12 00:55:36;;;;;;;5.57;3.45;;;17.10;78.30;;;;;;5072024;28;20032;-83
2021/08/12 00:58:05;;;;;;;5.13;3.38;;;17.00;77.40;;;;;;5071853;28;20485;-84
2021/08/12 01:00:35;;;;;;;4.47;3.30;;;17.10;77.30;;;;;;5073039;28;20016;-84
2021/08/12 01:03:01;;;;;;;5.80;3.63;;;17.10;77.30;;;;;;5071733;28;20149;-85
2021/08/12 01:05:30;;;;;;;4.47;3.13;;;17.00;78.80;;;;;;5071655;28;20029;-83
2021/08/12 01:08:03;;;;;;;4.57;3.35;;;16.90;77.90;;;;;;5071460;28;20397;-83
2021/08/12 01:10:37;;;;;;;5.57;3.47;;;16.90;78.80;;;;;;5069376;28;20407;-85
2021/08/12 01:13:15;;;;;;;5.07;3.13;;;16.90;78.40;;;;;;5072878;28;20033;-83
2021/08/12 01:15:44;;;;;;;5.82;2.97;;;16.90;79.20;;;;;;5076208;28;20044;-84
2021/08/12 01:18:35;;;;;;;4.00;3.05;;;16.90;78.10;;;;;;5090493;28;20032;-85
2021/08/12 01:21:25;;;;;;;3.55;2.92;;;16.90;77.90;;;;;;5089996;28;20024;-85
2021/08/12 01:23:58;;;;;;;4.07;3.03;;;16.90;77.90;;;;;;5090511;28;20034;-84
2021/08/12 01:26:24;;;;;;;3.25;2.78;;;16.90;78.70;;;;;;5092245;28;20107;-84
2021/08/12 01:28:51;;;;;;;4.65;3.17;;;16.90;78.50;;;;;;5092359;28;20081;-84
2021/08/12 01:31:26;;;;;;;4.80;3.40;;;16.90;78.20;;;;;;5091347;28;20016;-84
2021/08/12 01:34:07;;;;;;;4.20;3.22;;;16.90;78.30;;;;;;5091741;28;20028;-85
2021/08/12 01:36:36;;;;;;;3.95;3.55;;;16.90;78.60;;;;;;5091605;28;20043;-85
2021/08/12 01:39:05;;;;;;;3.75;2.72;;;16.90;78.20;;;;;;5092722;28;20124;-83
2021/08/12 01:41:32;;;;;;;3.90;2.97;;;16.90;78.70;;;;;;5088937;28;20388;-83
2021/08/12 01:44:00;;;;;;;4.20;3.00;;;16.90;78.50;;;;;;5091450;28;20070;-83
2021/08/12 01:46:27;;;;;;;4.22;2.88;;;16.90;78.40;;;;;;5085024;28;20024;-83
2021/08/12 01:48:56;;;;;;;7.68;3.28;;;16.90;78.30;;;;;;5090690;28;20514;-84
2021/08/12 01:51:24;;;;;;;5.18;3.13;;;16.90;79.50;;;;;;5079701;28;20036;-85
2021/08/12 01:53:52;;;;;;;7.22;3.10;;;16.90;78.30;;;;;;5080053;28;20074;-83
2021/08/12 01:56:19;;;;;;;3.83;2.88;;;16.80;78.20;;;;;;5092359;28;20028;-83
2021/08/12 01:58:46;;;;;;;5.65;3.70;;;16.80;78.40;;;;;;5091376;28;20028;-84
2021/08/12 02:01:12;;;;;;;4.78;3.58;;;16.70;79.10;;;;;;5084681;28;20402;-84
2021/08/12 02:03:39;;;;;;;4.93;3.72;;;16.70;80.40;;;;;;5091220;28;20020;-84
2021/08/12 02:06:06;;;;;;;3.95;3.22;;;16.60;79.20;;;;;;5093546;28;20024;-85
2021/08/12 02:08:32;;;;;;;5.30;3.38;;;16.50;79.60;;;;;;5093160;28;20070;-83
2021/08/12 02:10:57;;;;;;;5.00;3.45;;;16.50;80.10;;;;;;5090568;28;20020;-83
2021/08/12 02:13:25;;;;;;;5.30;3.58;;;16.40;80.20;;;;;;5095301;28;20020;-86
2021/08/12 02:15:51;;;;;;;7.00;3.25;;;16.40;80.40;;;;;;5101593;28;20552;-85
2021/08/12 02:18:17;;;;;;;4.30;3.33;;;16.60;81.20;;;;;;5098336;28;20016;-84
2021/08/12 02:20:48;;;;;;;4.85;3.15;;;16.60;80.90;;;;;;5117084;28;20483;-85
2021/08/12 02:23:33;;;;;;;4.13;3.10;;;16.70;80.50;;;;;;5098806;28;20027;-85
2021/08/12 02:26:05;;;;;;;3.67;2.80;;;16.80;80.70;;;;;;5098716;28;20081;-84
2021/08/12 02:28:32;;;;;;;5.78;4.00;;;16.80;79.90;;;;;;5131393;27;20024;-84
2021/08/12 02:30:59;;;;;;;3.78;3.13;;;16.70;79.60;;;;;;5096379;28;20024;-83
2021/08/12 02:33:32;;;;;;;4.72;3.25;;;16.70;79.50;;;;;;5093626;28;20051;-83
2021/08/12 02:35:59;;;;;;;4.85;2.88;;;16.70;80.30;;;;;;5116317;28;20110;-83
2021/08/12 02:38:25;;;;;;;4.60;3.38;;;16.70;80.10;;;;;;5098014;28;20020;-83
2021/08/12 02:40:52;;;;;;;4.10;3.38;;;16.70;79.70;;;;;;5098352;28;20024;-83
2021/08/12 02:43:20;;;;;;;7.40;4.22;;;16.80;80.80;;;;;;5097692;28;20031;-83
2021/08/12 02:45:47;;;;;;;5.25;3.20;;;16.70;79.90;;;;;;5097901;28;20539;-83
2021/08/12 02:48:14;;;;;;;3.92;3.33;;;16.70;80.50;;;;;;5097444;28;20126;-83
2021/08/12 02:50:42;;;;;;;4.78;3.33;;;16.80;80.60;;;;;;5097919;28;20032;-83
2021/08/12 02:53:09;;;;;;;4.07;3.30;;;16.70;80.10;;;;;;5115805;28;20020;-81
2021/08/12 02:55:36;;;;;;;4.80;3.85;;;16.70;79.60;;;;;;5116171;28;20035;-82
2021/08/12 02:58:03;;;;;;;5.45;3.47;;;16.60;80.10;;;;;;5097485;28;20072;-81
2021/08/12 03:00:30;;;;;;;4.43;3.35;;;16.70;80.80;;;;;;5115581;27;20058;-82
2021/08/12 03:02:57;;;;;;;4.13;2.92;;;16.60;80.90;;;;;;5115688;28;20058;-81
2021/08/12 03:05:23;;;;;;;5.13;3.35;;;16.60;80.50;;;;;;5112292;28;20576;-82
2021/08/12 03:07:49;;;;;;;4.88;4.18;;;16.70;80.70;;;;;;5094476;28;20025;-82
2021/08/12 03:10:20;;;;;;;4.78;3.70;;;16.70;81.00;;;;;;5115875;28;20120;-82
2021/08/12 03:12:47;;;;;;;4.38;3.22;;;16.70;80.90;;;;;;5089295;28;20023;-82
2021/08/12 03:15:13;;;;;;;5.82;3.75;;;16.80;80.90;;;;;;5092934;28;20415;-82
2021/08/12 03:17:39;;;;;;;4.28;3.20;;;16.80;80.90;;;;;;5088965;28;20020;-81
2021/08/12 03:20:06;;;;;;;4.95;3.47;;;16.80;80.50;;;;;;5115280;28;20024;-82
2021/08/12 03:22:32;;;;;;;4.38;3.08;;;16.80;80.70;;;;;;5097388;28;20023;-82
2021/08/12 03:24:58;;;;;;;4.57;3.33;;;16.90;80.60;;;;;;5097014;28;20036;-82
2021/08/12 03:27:24;;;;;;;4.05;3.13;;;16.90;81.00;;;;;;5115052;28;20111;-82
2021/08/12 03:29:51;;;;;;;4.32;3.42;;;16.90;80.70;;;;;;5096587;28;20039;-82
2021/08/12 03:32:20;;;;;;;5.18;3.65;;;16.90;81.00;;;;;;5130897;27;20111;-82
2021/08/12 03:34:46;;;;;;;5.25;3.80;;;16.90;80.60;;;;;;5115074;28;20039;-82
2021/08/12 03:37:13;;;;;;;4.75;3.35;;;16.90;80.40;;;;;;5115076;28;20556;-82
2021/08/12 03:39:39;;;;;;;4.13;3.05;;;16.90;81.00;;;;;;5114959;28;20097;-84
2021/08/12 03:42:05;;;;;;;5.20;3.47;;;16.90;80.70;;;;;;5097180;28;20052;-86
2021/08/12 03:44:30;;;;;;;4.05;3.13;;;16.80;80.00;;;;;;5115263;28;20027;-87
2021/08/12 03:46:56;;;;;;;6.82;3.60;;;16.80;80.80;;;;;;5115461;28;20038;-86
2021/08/12 03:49:22;;;;;;;5.65;3.83;;;16.80;81.30;;;;;;5116449;27;20028;-86
2021/08/12 03:51:47;;;;;;;5.40;3.72;;;16.80;81.50;;;;;;5097492;28;20031;-86
2021/08/12 03:54:13;;;;;;;4.35;3.15;;;16.80;82.10;;;;;;5098079;28;20032;-86
2021/08/12 03:56:39;;;;;;;5.30;3.40;;;16.70;81.70;;;;;;5098579;28;20035;-86
2021/08/12 03:59:05;;;;;;;4.25;3.40;;;16.70;81.70;;;;;;5097664;28;20491;-86
2021/08/12 04:01:31;;;;;;;5.40;3.67;;;16.70;81.20;;;;;;5098635;28;20535;-87
2021/08/12 04:03:57;;;;;;;4.13;3.72;;;16.70;81.20;;;;;;5098117;28;20024;-88
2021/08/12 04:06:23;;;;;;;6.05;3.90;;;16.70;82.00;;;;;;5096423;28;20501;-85
2021/08/12 04:08:49;;;;;;;5.35;3.40;;;16.70;81.90;;;;;;5113744;28;20047;-86
2021/08/12 04:11:14;;;;;;;4.35;3.25;;;16.70;81.80;;;;;;5095258;28;20054;-86
2021/08/12 04:13:40;;;;;;;6.10;4.13;;;16.60;81.80;;;;;;5097130;28;20019;-85
2021/08/12 04:16:06;;;;;;;5.55;3.53;;;16.60;81.00;;;;;;5096084;28;20092;-85
2021/08/12 04:18:31;;;;;;;5.43;3.65;;;16.50;82.20;;;;;;5096275;28;20028;-85
2021/08/12 04:20:57;;;;;;;5.53;3.70;;;16.50;81.50;;;;;;5114632;28;20036;-85
2021/08/12 04:23:23;;;;;;;5.35;3.95;;;16.40;81.80;;;;;;5114122;28;20377;-85
2021/08/12 04:25:51;;;;;;;4.85;3.35;;;16.40;82.00;;;;;;5095504;28;20107;-85
2021/08/12 04:28:17;;;;;;;6.70;3.55;;;16.40;82.60;;;;;;5109238;28;20020;-85
2021/08/12 04:30:42;;;;;;;4.72;3.38;;;16.40;81.90;;;;;;5092160;28;20424;-85
2021/08/12 04:33:08;;;;;;;4.82;3.65;;;16.40;82.20;;;;;;5094864;28;20027;-85
2021/08/12 04:35:33;;;;;;;6.05;3.50;;;16.50;82.10;;;;;;5113670;28;20054;-85
2021/08/12 04:37:59;;;;;;;5.68;3.92;;;16.40;82.50;;;;;;5095942;28;20046;-87
2021/08/12 04:40:25;;;;;;;5.47;3.42;;;16.40;81.70;;;;;;5097272;28;20027;-85
2021/08/12 04:42:52;;;;;;;4.32;3.65;;;16.40;82.40;;;;;;5113755;28;20135;-84
2021/08/12 04:45:19;;;;;;;6.18;4.22;;;16.40;82.20;;;;;;5095586;28;20035;-84
2021/08/12 04:47:45;;;;;;;5.35;4.00;;;16.30;81.70;;;;;;5113725;28;20016;-84
2021/08/12 04:50:12;;;;;;;5.97;4.07;;;16.30;82.20;;;;;;5113703;28;20042;-83
2021/08/12 04:52:39;;;;;;;6.72;4.63;;;16.20;82.60;;;;;;5095823;28;20023;-84
2021/08/12 04:55:09;;;;;;;7.60;4.22;;;16.20;82.80;;;;;;5113125;28;20031;-84
2021/08/12 04:57:34;;;;;;;7.78;4.22;;;16.10;82.70;;;;;;5112714;28;20488;-84
2021/08/12 05:00:00;;;;;;;5.95;3.88;;;16.00;82.10;;;;;;5094206;28;20064;-84
2021/08/12 05:02:26;;;;;;;6.30;4.55;;;16.00;82.80;;;;;;5112960;28;20510;-84
2021/08/12 05:04:52;;;;;;;5.00;4.00;;;16.10;82.60;;;;;;5094696;28;20439;-85
2021/08/12 05:07:18;;;;;;;4.93;3.67;;;16.00;82.60;;;;;;5113236;28;20050;-84
2021/08/12 05:09:43;;;;;;;5.72;4.22;;;16.10;83.30;;;;;;5112751;28;20031;-85
2021/08/12 05:12:09;;;;;;;4.95;4.05;;;16.10;82.40;;;;;;5112233;28;20038;-83
2021/08/12 05:14:35;;;;;;;4.75;3.95;;;16.00;83.20;;;;;;5093435;28;20057;-83
2021/08/12 05:17:00;;;;;;;4.53;3.55;;;16.00;84.10;;;;;;5128321;27;20043;-83
2021/08/12 05:19:26;;;;;;;6.45;4.28;;;16.10;83.60;;;;;;5094459;28;20035;-83
2021/08/12 05:21:52;;;;;;;5.28;4.47;;;16.00;83.30;;;;;;5112644;28;20035;-84
2021/08/12 05:24:17;;;;;;;6.03;4.10;;;16.00;84.60;;;;;;5112034;28;20031;-84
2021/08/12 05:26:43;;;;;;;5.15;4.13;;;16.00;83.80;;;;;;5093733;28;20024;-84
2021/08/12 05:29:09;;;;;;;6.55;4.38;;;15.90;83.40;;;;;;5093370;28;20035;-84
2021/08/12 05:31:35;;;;;;;4.57;4.10;;;15.90;83.70;;;;;;5112327;28;20030;-85
2021/08/12 05:34:00;;;;;;;4.55;4.05;;;15.90;84.30;;;;;;5111289;28;20035;-85
2021/08/12 05:36:26;;;;;;;4.32;3.92;;;16.00;84.60;;;;;;5093719;28;20035;-85
2021/08/12 05:38:52;;;;;;;8.15;4.40;;;16.00;84.10;;;;;;5090870;28;20027;-87
2021/08/12 05:41:18;;;;;;;5.40;4.05;;;16.00;84.00;;;;;;5094366;28;20194;-88
2021/08/12 05:43:44;;;;;;;5.93;3.92;;;16.00;83.70;;;;;;5123945;27;20139;-87
2021/08/12 05:46:09;;;;;;;4.57;4.00;;;16.00;84.00;;;;;;5111940;28;20110;-86
2021/08/12 05:48:35;;;;;;;5.75;4.07;;;16.10;84.30;;;;;;5093571;28;20027;-85
2021/08/12 05:51:01;;;;;;;6.50;4.10;;;16.20;85.30;;;;;;5093038;28;20020;-84
2021/08/12 05:53:30;;;;;;;5.65;3.97;;;16.30;84.50;;;;;;5111908;28;20438;-84
2021/08/12 05:55:56;;;;;;;4.72;3.97;;;16.30;83.70;;;;;;5092985;28;20039;-84
2021/08/12 05:58:21;;;;;;;6.03;4.07;;;16.30;83.90;;;;;;5111972;28;20024;-85
2021/08/12 06:00:47;;;;;;;5.18;4.30;;;16.30;84.10;;;;;;5093071;28;20076;-85
2021/08/12 06:03:13;;;;;;;7.68;4.15;;;16.30;84.10;;;;;;5086621;28;20073;-83
2021/08/12 06:05:41;;;;;;;5.28;4.20;;;16.40;83.80;;;;;;5112147;28;20016;-84
2021/08/12 06:08:10;;;;;;;5.70;3.90;;;16.50;84.20;;;;;;5093683;28;20024;-85
2021/08/12 06:10:36;;;;;;;7.28;4.40;;;16.60;84.00;;;;;;5112606;28;20461;-85
2021/08/12 06:13:03;;;;;;;6.00;3.80;;;16.60;83.90;;;;;;5112288;28;20036;-85
2021/08/12 06:15:29;;;;;;;7.85;4.40;;;16.60;84.10;;;;;;5093905;28;20039;-86
2021/08/12 06:17:55;;;;;;;5.53;4.20;;;16.60;83.80;;;;;;5094060;28;20019;-86
2021/08/12 06:20:21;;;;;;;6.20;4.32;;;16.60;84.30;;;;;;5092968;28;20177;-85
2021/08/12 06:22:52;;;;;;;5.80;4.10;;;16.70;83.90;;;;;;5093603;28;20084;-85
2021/08/12 06:25:18;;;;;;;7.47;4.90;;;16.80;84.50;;;;;;5092450;28;20039;-85
2021/08/12 06:27:44;;;;;;;8.60;4.40;;;16.90;84.40;;;;;;5092801;28;20019;-85
2021/08/12 06:30:11;;;;;;;4.88;3.85;;;17.00;84.10;;;;;;5092524;28;20031;-85
2021/08/12 06:32:38;;;;;;;6.45;4.30;;;17.00;84.00;;;;;;5086978;28;20028;-85
2021/08/12 06:35:06;;;;;;;7.13;4.22;;;17.10;83.90;;;;;;5094250;28;20039;-86
2021/08/12 06:37:41;;;;;;;5.03;3.70;;;17.20;84.00;;;;;;5093536;28;20024;-85
2021/08/12 06:40:10;;;;;;;6.28;4.07;;;17.30;83.80;;;;;;5111308;28;20028;-86
2021/08/12 06:42:36;;;;;;;5.40;3.97;;;17.40;83.50;;;;;;5092660;28;20039;-85
2021/08/12 06:45:02;;;;;;;6.60;4.35;;;17.50;83.30;;;;;;5092667;28;20031;-85
2021/08/12 06:47:28;;;;;;;6.22;4.15;;;17.60;83.10;;;;;;5093393;28;20061;-85
2021/08/12 06:49:53;;;;;;;5.43;3.80;;;17.70;83.30;;;;;;5111479;28;20027;-84
2021/08/12 06:52:19;;;;;;;6.18;4.50;;;17.80;83.30;;;;;;5093546;28;20031;-84
2021/08/12 06:54:45;;;;;;;6.43;4.00;;;17.90;82.70;;;;;;5092605;28;20507;-83
2021/08/12 06:57:10;;;;;;;7.53;4.05;;;18.00;82.70;;;;;;5113241;28;20027;-83
2021/08/12 06:59:36;;;;;;;4.45;3.70;;;18.00;82.10;;;;;;5096652;28;20055;-84
2021/08/12 07:02:02;;;;;;;5.22;3.80;;;18.10;82.40;;;;;;5115043;28;20019;-83
2021/08/12 07:04:27;;;;;;;5.97;3.95;;;18.10;82.10;;;;;;5115304;28;20036;-83
2021/08/12 07:06:53;;;;;;;5.30;3.75;;;18.10;81.80;;;;;;5095879;28;20110;-85
2021/08/12 07:09:18;;;;;;;4.68;3.50;;;18.20;82.00;;;;;;5114804;28;20040;-84
2021/08/12 07:11:47;;;;;;;5.13;3.47;;;18.20;82.10;;;;;;5114701;28;20020;-83
2021/08/12 07:14:12;;;;;;;6.07;4.00;;;18.30;82.10;;;;;;5125057;27;20076;-82
2021/08/12 07:16:38;;;;;;;6.53;3.97;;;18.30;81.60;;;;;;5063267;27;20712;-86
2021/08/12 07:19:03;;;;;;;4.93;3.50;;;18.40;81.80;;;;;;5114764;27;20027;-87
2021/08/12 07:21:29;;;;;;;5.10;3.20;;;18.40;81.90;;;;;;5088715;27;20027;-90
2021/08/12 07:23:55;;;;;;;4.97;3.33;;;18.50;81.60;;;;;;5111518;27;20192;-83
2021/08/12 07:26:20;;;;;;;3.65;3.05;;;18.50;82.80;;;;;;5097554;28;20028;-86
2021/08/12 07:28:46;;;;;;;3.97;3.30;;;18.60;81.80;;;;;;5131727;27;20091;-85
2021/08/12 07:31:15;;;;;;;6.10;3.30;;;18.70;81.60;;;;;;5114995;28;20415;-85
2021/08/12 07:33:41;;;;;;;5.40;3.20;;;18.90;81.50;;;;;;5114367;28;20023;-84
2021/08/12 07:36:07;;;;;;;5.53;3.83;;;18.90;81.40;;;;;;5114176;28;20036;-84
2021/08/12 07:38:33;;;;;;;5.30;3.30;;;19.00;81.20;;;;;;5096441;28;20023;-84
2021/08/12 07:41:00;;;;;;;5.65;3.40;;;19.10;81.00;;;;;;5096425;28;20031;-84
2021/08/12 07:43:27;;;;;;;4.25;3.17;;;19.10;80.70;;;;;;5115262;28;20032;-85
2021/08/12 07:45:52;;;;;;;6.57;3.20;;;19.20;80.80;;;;;;5114549;28;20035;-84
2021/08/12 07:48:18;;;;;;;4.53;3.47;;;19.20;80.40;;;;;;5096111;28;20038;-84
2021/08/12 07:50:45;;;;;;;5.53;3.70;;;19.20;80.50;;;;;;5095728;28;20024;-84
2021/08/12 07:53:11;;;;;;;4.00;3.40;;;19.20;80.30;;;;;;5094970;28;20027;-85
2021/08/12 07:55:36;;;;;;;6.15;3.20;;;19.20;80.00;;;;;;5095952;28;20479;-84
2021/08/12 07:58:02;;;;;;;3.67;3.20;;;19.10;79.50;;;;;;5094364;28;20476;-83
2021/08/12 08:00:28;;;;;;;5.22;3.80;;;19.10;80.10;;;;;;5113698;28;20368;-85
2021/08/12 08:02:55;;;;;;;4.80;3.50;;;19.10;80.10;;;;;;5095874;28;20111;-83
2021/08/12 08:05:23;;;;;;;5.13;3.65;;;19.20;80.40;;;;;;5113903;28;20024;-83
2021/08/12 08:07:52;;;;;;;4.70;3.47;;;19.20;80.20;;;;;;5113593;28;20032;-83
2021/08/12 08:10:20;;;;;;;6.05;3.22;;;19.30;80.50;;;;;;5113053;28;20115;-84
2021/08/12 08:12:46;;;;;;;6.05;3.60;;;19.30;80.10;;;;;;5079609;28;20032;-84
2021/08/12 08:15:14;;;;;;;4.78;3.30;;;19.40;79.90;;;;;;5089733;28;20048;-83
2021/08/12 08:17:40;;;;;;;5.35;2.88;;;19.40;80.10;;;;;;5112997;28;20028;-80
2021/08/12 08:20:08;;;;;;;4.63;3.40;;;19.60;79.90;;;;;;5112547;28;20027;-79
2021/08/12 08:22:35;;;;;;;4.50;3.63;;;19.60;79.60;;;;;;5113029;28;20008;-80
2021/08/12 08:25:01;;;;;;;5.75;3.60;;;19.60;79.20;;;;;;5110817;28;20024;-80
2021/08/12 08:27:27;;;;;;;6.07;3.67;;;19.60;79.40;;;;;;5112240;28;20031;-77
2021/08/12 08:29:53;;;;;;;5.22;3.78;;;19.60;79.30;;;;;;5116739;28;20039;-77
2021/08/12 08:32:19;;;;;;;3.85;3.28;;;19.60;79.40;;;;;;5114075;28;20023;-81
2021/08/12 08:34:46;;;;;;;4.50;3.38;;;19.70;79.60;;;;;;5095288;28;20031;-80
2021/08/12 08:37:12;;;;;;;5.57;4.13;;;19.70;79.10;;;;;;5092225;28;20039;-82
2021/08/12 08:39:38;;;;;;;7.38;3.70;;;19.60;78.60;;;;;;5113544;28;20128;-84
2021/08/12 08:42:05;;;;;;;5.57;4.00;;;19.60;79.40;;;;;;5094996;28;20110;-83
2021/08/12 08:44:33;;;;;;;5.15;3.17;;;19.70;79.40;;;;;;5113149;28;20510;-83
2021/08/12 08:46:59;;;;;;;4.85;3.70;;;19.80;79.10;;;;;;5113501;28;20007;-83
2021/08/12 08:49:27;;;;;;;6.32;4.20;;;19.90;79.40;;;;;;5112893;28;20544;-81
2021/08/12 08:51:54;;;;;;;6.10;3.90;;;19.90;78.50;;;;;;5111872;28;20759;-83
2021/08/12 08:54:20;;;;;;;5.75;3.50;;;19.90;78.40;;;;;;5112989;28;20028;-81
2021/08/12 08:56:46;;;;;;;6.88;3.78;;;20.00;79.00;;;;;;5089915;28;20035;-83
2021/08/12 08:59:12;;;;;;;4.03;3.13;;;20.00;78.90;;;;;;5092304;28;20027;-81
2021/08/12 09:01:39;;;;;;;5.03;3.47;;;20.10;79.50;;;;;;5094230;28;20061;-83
2021/08/12 09:04:04;;;;;;;4.45;3.67;;;20.20;78.10;;;;;;5110606;28;20111;-86
2021/08/12 09:06:30;;;;;;;5.35;3.90;;;20.20;77.90;;;;;;5121237;27;20494;-88
2021/08/12 09:08:57;;;;;;;9.00;4.15;;;20.30;78.60;;;;;;5121777;27;20019;-87
2021/08/12 09:11:26;;;;;;;4.63;3.45;;;20.40;77.60;;;;;;5112239;28;20055;-83
2021/08/12 09:13:53;;;;;;;5.25;3.78;;;20.50;78.50;;;;;;5143201;27;20015;-84
2021/08/12 09:16:33;;;;;;;5.15;3.00;;;20.70;77.80;;;;;;5111968;28;20055;-86
2021/08/12 09:19:23;;;;;;;6.35;3.60;;;20.80;77.90;;;;;;5093090;28;20051;-84
2021/08/12 09:22:09;;;;;;;5.07;3.58;;;20.90;78.00;;;;;;5105605;27;20023;-86
2021/08/12 09:24:50;;;;;;;6.35;3.70;;;21.00;77.50;;;;;;5125991;27;20016;-85
2021/08/12 09:27:20;;;;;;;5.65;3.83;;;21.30;77.80;;;;;;5112430;28;20545;-85
2021/08/12 09:29:45;;;;;;;5.00;3.17;;;21.30;77.00;;;;;;5093363;28;20027;-83
2021/08/12 09:32:11;;;;;;;5.72;3.45;;;21.40;76.50;;;;;;5091218;28;20036;-86
2021/08/12 09:34:44;;;;;;;5.03;3.83;;;21.40;75.60;;;;;;5093172;28;20043;-85
2021/08/12 09:37:10;;;;;;;5.22;3.38;;;21.30;75.80;;;;;;5109787;28;20491;-86
2021/08/12 09:39:37;;;;;;;4.05;3.40;;;21.20;74.90;;;;;;5092301;28;20039;-84
2021/08/12 09:42:05;;;;;;;6.22;3.50;;;21.10;75.00;;;;;;5107022;28;20048;-84
2021/08/12 09:44:50;;;;;;;3.67;3.30;;;20.90;75.50;;;;;;5111453;28;20557;-84
2021/08/12 09:47:28;;;;;;;5.15;3.40;;;20.80;75.70;;;;;;5090687;28;20043;-85
2021/08/12 09:49:57;;;;;;;6.65;4.05;;;20.70;76.10;;;;;;5108777;28;20019;-82
2021/08/12 09:52:34;;;;;;;5.65;3.88;;;20.60;76.00;;;;;;5091600;28;20559;-84
2021/08/12 09:55:07;;;;;;;3.67;3.13;;;20.50;76.60;;;;;;5109802;28;20032;-81
2021/08/12 09:57:47;;;;;;;4.78;3.60;;;20.50;76.60;;;;;;5106770;28;20442;-83
2021/08/12 10:00:14;;;;;;;5.05;3.50;;;20.50;76.80;;;;;;5108147;28;20042;-82
2021/08/12 10:02:40;;;;;;;6.70;3.88;;;20.50;77.00;;;;;;5110918;28;20023;-79
2021/08/12 10:05:11;;;;;;;5.40;3.63;;;20.50;77.20;;;;;;5110635;28;20440;-86
2021/08/12 10:07:51;;;;;;;4.25;3.28;;;20.60;77.30;;;;;;5096710;28;20023;-94
2021/08/12 10:10:17;;;;;;;5.57;3.97;;;20.60;77.60;;;;;;5113655;28;20039;-89
2021/08/12 10:12:46;;;;;;;4.32;3.58;;;20.70;77.30;;;;;;5117587;27;20024;-92
2021/08/12 10:15:21;;;;;;;5.10;3.95;;;20.70;77.30;;;;;;5112401;28;20028;-91
2021/08/12 10:17:48;;;;;;;5.68;3.45;;;20.80;77.50;;;;;;5108488;28;20039;-86
2021/08/12 10:20:19;;;;;;;5.03;3.58;;;20.90;77.40;;;;;;5111528;28;20020;-85
2021/08/12 10:22:46;;;;;;;5.22;3.72;;;20.90;76.80;;;;;;5104710;28;20463;-87
2021/08/12 10:25:14;;;;;;;4.72;3.80;;;20.90;76.90;;;;;;5110402;28;20030;-91
2021/08/12 10:27:42;;;;;;;4.63;3.53;;;20.90;76.50;;;;;;5097272;28;20019;-88
2021/08/12 10:30:08;;;;;;;5.85;4.07;;;21.00;76.90;;;;;;5089314;28;20046;-86
2021/08/12 10:32:37;;;;;;;6.45;4.05;;;21.00;77.10;;;;;;5112945;28;20016;-86
2021/08/12 10:35:04;;;;;;;8.45;5.53;;;21.10;76.70;;;;;;5096035;28;20028;-86
2021/08/12 10:37:30;;;;;;;5.80;4.65;;;21.20;76.20;;;;;;5102371;28;20066;-83
2021/08/12 10:39:57;;;;;;;5.43;4.05;;;21.20;75.80;;;;;;5114848;28;20050;-82
2021/08/12 10:42:23;;;;;;;6.82;4.20;;;21.10;75.30;;;;;;5114224;28;20028;-83
2021/08/12 10:44:50;;;;;;;7.10;4.70;;;21.20;75.90;;;;;;5113716;28;20023;-87
2021/08/12 10:47:41;;;;;;;7.38;4.80;;;21.20;75.60;;;;;;5114383;28;20097;-85
2021/08/12 10:50:22;;;;;;;6.82;4.03;;;21.30;75.90;;;;;;5113187;28;20107;-89
2021/08/12 10:53:13;;;;;;;4.78;4.28;;;21.30;76.10;;;;;;5115123;28;20024;-84
2021/08/12 10:55:38;;;;;;;7.68;4.78;;;21.30;76.20;;;;;;5114423;28;20036;-91
2021/08/12 11:00:56;;;;;;;7.13;4.95;;;21.50;75.30;;;;;;5112692;28;20052;-81
2021/08/12 11:03:33;;;;;;;5.30;4.35;;;21.60;74.40;;;;;;5121867;27;20020;-81
2021/08/12 11:06:12;;;;;;;7.43;4.50;;;21.60;74.90;;;;;;5093773;28;20023;-91
2021/08/12 11:11:28;;;;;;;6.30;4.15;;;21.70;74.20;;;;;;5120276;28;20518;-94
2021/08/12 11:14:39;;;;;;;5.80;3.97;;;21.80;74.50;;;;;;5096677;28;20059;-80
2021/08/12 11:17:04;;;;;;;5.78;4.22;;;21.80;74.00;;;;;;5094792;28;20052;-87
2021/08/12 11:19:35;;;;;;;5.40;4.43;;;21.90;73.60;;;;;;5110595;28;20376;-85
2021/08/12 11:22:01;;;;;;;5.93;4.10;;;22.00;73.20;;;;;;5115144;27;20031;-86
2021/08/12 11:24:26;;;;;;;6.28;4.07;;;22.10;73.50;;;;;;5113543;28;20039;-84
2021/08/12 11:26:52;;;;;;;4.90;3.63;;;22.00;73.30;;;;;;5089855;28;20024;-83
2021/08/12 11:29:30;;;;;;;5.82;4.18;;;22.10;71.40;;;;;;5113200;28;20562;-83
2021/08/12 11:31:58;;;;;;;5.25;4.32;;;22.10;72.00;;;;;;5113603;28;20050;-86
2021/08/12 11:34:29;;;;;;;7.05;4.88;;;22.10;71.00;;;;;;5088462;28;20026;-86
2021/08/12 11:37:14;;;;;;;6.28;4.60;;;22.20;70.60;;;;;;5090742;28;20122;-85
2021/08/12 11:39:59;;;;;;;5.00;4.25;;;22.20;71.10;;;;;;5113774;28;20036;-81
2021/08/12 11:42:26;;;;;;;5.47;4.43;;;22.30;72.10;;;;;;5112842;28;20051;-85
2021/08/12 11:44:54;;;;;;;10.25;4.70;;;22.30;71.00;;;;;;5112632;28;20050;-86
2021/08/12 11:47:20;;;;;;;6.13;4.28;;;22.30;70.70;;;;;;5113957;28;20023;-83
2021/08/12 11:49:54;;;;;;;5.78;4.47;;;22.40;70.70;;;;;;5114482;28;20027;-84
2021/08/12 11:52:27;;;;;;;8.77;5.22;;;22.50;71.10;;;;;;5111931;28;20518;-84
2021/08/12 11:54:56;;;;;;;6.30;4.80;;;22.60;70.80;;;;;;5093546;28;20032;-84
2021/08/12 11:57:40;;;;;;;7.88;5.57;;;22.60;70.60;;;;;;5110931;28;20077;-88
2021/08/12 12:00:17;;;;;;;5.97;5.28;;;22.70;70.70;;;;;;5094447;28;20028;-87
2021/08/12 12:02:53;;;;;;;6.45;5.22;;;22.60;70.30;;;;;;5113590;28;20069;-88
2021/08/12 12:05:21;;;;;;;5.40;4.38;;;22.50;70.70;;;;;;5098099;28;20043;-88
2021/08/12 12:07:48;;;;;;;7.10;4.63;;;22.50;70.60;;;;;;5095694;28;20020;-87
2021/08/12 12:10:28;;;;;;;5.40;4.60;;;22.40;70.30;;;;;;5107627;28;20483;-87
2021/08/12 12:13:06;;;;;;;5.63;4.50;;;22.50;71.50;;;;;;5096111;28;20147;-87
2021/08/12 12:15:34;;;;;;;5.78;4.35;;;22.60;69.90;;;;;;5112174;28;20565;-87
2021/08/12 12:18:00;;;;;;;6.38;4.60;;;22.90;69.80;;;;;;5095157;28;20495;-87
2021/08/12 12:20:26;;;;;;;6.45;4.45;;;23.10;69.30;;;;;;5112782;28;20032;-88
2021/08/12 12:23:00;;;;;;;5.40;4.32;;;23.30;67.20;;;;;;5113667;28;20077;-88
2021/08/12 12:25:28;;;;;;;6.05;4.20;;;23.30;67.30;;;;;;5112788;28;20579;-85
2021/08/12 12:27:58;;;;;;;4.88;4.30;;;23.40;66.90;;;;;;5092752;28;20019;-86
2021/08/12 12:30:27;;;;;;;5.63;4.47;;;23.40;67.10;;;;;;5106190;28;20041;-85
2021/08/12 12:33:03;;;;;;;6.22;4.80;;;23.40;67.50;;;;;;5094853;28;20058;-86
2021/08/12 12:35:38;;;;;;;6.78;4.82;;;23.30;67.90;;;;;;5112917;28;20087;-90
2021/08/12 12:38:06;;;;;;;5.25;4.45;;;23.30;68.30;;;;;;5112733;28;20027;-90
2021/08/12 12:40:34;;;;;;;5.85;5.10;;;23.40;67.80;;;;;;5114245;28;20032;-89
2021/08/12 12:43:01;;;;;;;6.97;4.43;;;23.40;67.40;;;;;;5110853;28;20023;-89
2021/08/12 12:45:28;;;;;;;5.20;4.30;;;23.40;67.00;;;;;;5093415;28;20085;-90
2021/08/12 12:48:08;;;;;;;6.78;4.43;;;23.40;66.40;;;;;;5094875;28;20436;-85
2021/08/12 12:51:02;;;;;;;5.85;4.32;;;23.50;66.20;;;;;;5094330;28;20055;-91
2021/08/12 12:53:36;;;;;;;5.18;4.18;;;23.50;67.20;;;;;;5102724;27;20066;-88
2021/08/12 12:56:04;;;;;;;6.38;4.35;;;23.50;67.40;;;;;;5111880;27;20515;-90
2021/08/12 12:58:37;;;;;;;5.88;4.43;;;23.60;66.90;;;;;;5113282;27;20026;-89
2021/08/12 13:01:07;;;;;;;9.02;5.88;;;23.60;66.10;;;;;;5112046;28;20391;-91